Guaraquecaba, Brazil
Current Conditions -  °F | °C
As of 4:00 PM on Thursday 30 Oct 2014 (Local Time) from SBCT Reporting Station
Few Clouds Few Clouds  
Wind Chill: 86°   Ceiling: Unl
Heat Index: 86°   Visibility: 6mi
Dew Point: 39°   Wind: 6mph
Humidity: 19%   Direction: 280°W
Pressure: 29.85"   Gusts: NA
Location:  25.31°S, 48.33°W
Report Text: SBCT 301800Z 28005KT 9999 FEW035 30/04 Q1011
Loading
Personal Weather Stations






























Interactive Weather Map
Tropical Storm Tracking
New forecast layout! Learn more

10-Day Weather Forecast

Advertisements
Track Severe Weather on mobile